Time;durP1;ratioP1;P1;durP2;ratioP2;P2;SDS_P1;SDS_P2;PMS_P1;PMS_P2;Temp;Humidity;BMP_temperature;BMP_pressure;BME280_temperature;BME280_humidity;BME280_pressure;Samples;Min_cycle;Max_cycle;Signal;HPM_P1;HPM_P2
2022/04/11 00:00:27;;;;;;;9.32;6.95;;;5.50;99.90;;;;;;4974986;28;20031;-51
2022/04/11 00:02:53;;;;;;;10.15;7.47;;;5.40;99.90;;;;;;4974540;28;20023;-51
2022/04/11 00:05:19;;;;;;;12.95;8.35;;;5.40;99.90;;;;;;4974993;28;20023;-51
2022/04/11 00:07:44;;;;;;;7.68;5.88;;;5.40;99.90;;;;;;4972515;28;20055;-51
2022/04/11 00:10:10;;;;;;;8.52;5.63;;;5.40;99.90;;;;;;4974540;28;20505;-50
2022/04/11 00:12:37;;;;;;;10.98;7.07;;;5.30;99.90;;;;;;4974636;28;20041;-51
2022/04/11 00:15:07;;;;;;;9.30;6.20;;;5.30;99.90;;;;;;4972249;28;20055;-50
2022/04/11 00:17:34;;;;;;;14.15;8.95;;;5.30;99.90;;;;;;4974482;28;20074;-50
2022/04/11 00:20:00;;;;;;;10.95;7.05;;;5.30;99.90;;;;;;4973996;28;20510;-52
2022/04/11 00:22:25;;;;;;;9.05;6.50;;;5.20;99.90;;;;;;4974000;28;20031;-50
2022/04/11 00:37:26;;;;;;;8.88;7.85;;;5.80;99.90;;;;;;5102330;27;20404;-51
2022/04/11 00:39:52;;;;;;;9.25;7.78;;;5.80;99.90;;;;;;5084364;28;20040;-51
2022/04/11 00:42:18;;;;;;;18.08;10.93;;;5.70;99.90;;;;;;5096312;28;20128;-51
2022/04/11 00:44:43;;;;;;;9.77;6.65;;;5.70;99.90;;;;;;5087636;28;20048;-51
2022/04/11 00:47:09;;;;;;;10.98;6.68;;;5.60;99.90;;;;;;5102405;28;20048;-51
2022/04/11 00:49:35;;;;;;;8.95;5.68;;;5.60;99.90;;;;;;5076697;28;20024;-51
2022/04/11 00:52:01;;;;;;;9.68;6.05;;;5.50;99.90;;;;;;5056856;28;20048;-51
2022/04/11 00:54:29;;;;;;;8.10;4.85;;;5.40;99.90;;;;;;5080420;28;20033;-51
2022/04/11 00:56:56;;;;;;;7.70;4.95;;;5.50;99.90;;;;;;5081524;28;20041;-51
2022/04/11 00:59:22;;;;;;;7.45;4.32;;;5.50;99.90;;;;;;5064173;28;20036;-51
2022/04/11 01:01:48;;;;;;;8.45;4.95;;;5.40;99.90;;;;;;5057341;28;20554;-51
2022/04/11 01:04:23;;;;;;;18.23;9.40;;;5.40;99.90;;;;;;5063048;28;20067;-52
2022/04/11 01:06:56;;;;;;;6.78;4.80;;;5.40;99.90;;;;;;5073269;28;20530;-51
2022/04/11 01:09:26;;;;;;;6.50;4.53;;;5.50;99.90;;;;;;5078813;28;20069;-51
2022/04/11 01:11:52;;;;;;;7.18;4.10;;;5.50;99.90;;;;;;5055367;28;20384;-51
2022/04/11 01:14:19;;;;;;;6.75;4.10;;;5.30;99.90;;;;;;5084508;28;20395;-51
2022/04/11 01:16:50;;;;;;;8.27;5.10;;;5.40;99.90;;;;;;5077465;28;20020;-51
2022/04/11 01:19:16;;;;;;;18.25;9.85;;;5.40;99.90;;;;;;5052338;28;20036;-51
2022/04/11 01:21:49;;;;;;;6.13;4.20;;;5.40;99.90;;;;;;5073214;28;20476;-51
2022/04/11 01:24:19;;;;;;;12.55;8.07;;;5.40;99.90;;;;;;5083767;28;20036;-51
2022/04/11 01:26:47;;;;;;;10.10;6.10;;;5.50;99.90;;;;;;5086564;28;20252;-51
2022/04/11 01:29:13;;;;;;;11.85;7.32;;;5.50;99.90;;;;;;5080774;28;20025;-51
2022/04/11 01:31:38;;;;;;;10.65;5.47;;;5.50;99.90;;;;;;5072650;28;20036;-51
2022/04/11 01:34:04;;;;;;;7.47;5.18;;;5.50;99.90;;;;;;5080321;28;20513;-51
2022/04/11 01:36:30;;;;;;;9.38;6.03;;;5.50;99.90;;;;;;5083670;28;20107;-51
2022/04/11 01:38:56;;;;;;;6.82;5.30;;;5.50;99.90;;;;;;5046188;28;20033;-51
2022/04/11 01:41:22;;;;;;;6.85;4.47;;;5.50;99.90;;;;;;5040431;28;20374;-51
2022/04/11 01:43:48;;;;;;;9.45;5.78;;;5.40;99.90;;;;;;5060074;28;20041;-51
2022/04/11 01:46:14;;;;;;;6.78;5.10;;;5.40;99.90;;;;;;5058246;28;20049;-51
2022/04/11 01:48:40;;;;;;;8.40;4.75;;;5.30;99.90;;;;;;5044813;28;20070;-51
2022/04/11 01:51:06;;;;;;;9.45;5.22;;;5.30;99.90;;;;;;5043100;28;20423;-51
2022/04/11 01:53:32;;;;;;;5.53;4.20;;;5.40;99.90;;;;;;5059035;28;20091;-51
2022/04/11 01:55:58;;;;;;;8.30;5.60;;;5.30;99.90;;;;;;5066364;28;20037;-51
2022/04/11 01:58:23;;;;;;;5.53;4.00;;;5.30;99.90;;;;;;5045480;28;20380;-51
2022/04/11 02:00:49;;;;;;;7.38;4.63;;;5.30;99.90;;;;;;5044749;28;20033;-50
2022/04/11 02:03:15;;;;;;;4.95;3.95;;;5.10;99.90;;;;;;5043937;28;20452;-51
2022/04/11 02:05:42;;;;;;;11.75;5.25;;;5.10;99.90;;;;;;5049472;28;20495;-50
2022/04/11 02:08:10;;;;;;;6.85;4.47;;;5.20;99.90;;;;;;5046740;28;20037;-51
2022/04/11 02:10:37;;;;;;;10.02;6.18;;;5.20;99.90;;;;;;5044383;28;20102;-51
2022/04/11 02:13:04;;;;;;;6.22;3.97;;;5.10;99.90;;;;;;5049553;28;20037;-51
2022/04/11 02:15:30;;;;;;;7.90;4.15;;;5.10;99.90;;;;;;5046808;28;20357;-51
2022/04/11 02:17:55;;;;;;;7.32;4.85;;;5.10;99.90;;;;;;5041214;28;20029;-51
2022/04/11 02:20:21;;;;;;;12.98;7.07;;;5.00;99.90;;;;;;5042477;28;20021;-51
2022/04/11 02:22:55;;;;;;;7.80;3.80;;;5.00;99.90;;;;;;5052924;28;20033;-51
2022/04/11 02:25:25;;;;;;;7.20;4.45;;;5.00;99.90;;;;;;5045574;28;20575;-51
2022/04/11 02:27:51;;;;;;;9.93;4.63;;;5.10;99.90;;;;;;5039039;28;20035;-51
2022/04/11 02:30:18;;;;;;;4.45;3.40;;;5.00;99.90;;;;;;5048740;28;20040;-51
2022/04/11 02:32:45;;;;;;;9.52;5.07;;;5.10;99.90;;;;;;5045965;28;20025;-51
2022/04/11 02:35:11;;;;;;;5.03;3.13;;;5.10;99.90;;;;;;5050844;28;20431;-51
2022/04/11 02:37:38;;;;;;;5.53;3.53;;;5.10;99.90;;;;;;5071476;28;20029;-51
2022/04/11 02:40:24;;;;;;;6.10;3.25;;;5.00;99.90;;;;;;5061639;28;20029;-51
2022/04/11 02:42:50;;;;;;;6.82;3.58;;;4.70;99.90;;;;;;5047022;28;20064;-51
2022/04/11 02:45:17;;;;;;;7.15;3.45;;;4.80;99.90;;;;;;5042667;28;20068;-51
2022/04/11 02:47:43;;;;;;;5.95;3.70;;;4.80;99.90;;;;;;5054129;28;20121;-51
2022/04/11 02:50:09;;;;;;;5.35;3.47;;;4.80;99.90;;;;;;5064898;28;20543;-51
2022/04/11 02:52:35;;;;;;;5.20;4.00;;;4.80;99.90;;;;;;5060692;28;20520;-51
2022/04/11 02:55:01;;;;;;;4.25;3.17;;;4.80;99.90;;;;;;5060177;28;20029;-52
2022/04/11 02:57:29;;;;;;;7.68;3.50;;;4.80;99.90;;;;;;5061101;28;20531;-51
2022/04/11 02:59:56;;;;;;;6.50;3.83;;;4.80;99.90;;;;;;5065673;28;20220;-51
2022/04/11 03:02:22;;;;;;;5.28;3.22;;;4.80;99.90;;;;;;5063154;28;20043;-51
2022/04/11 03:04:47;;;;;;;5.35;3.42;;;4.90;99.90;;;;;;5032686;28;20040;-51
2022/04/11 03:07:13;;;;;;;7.63;3.20;;;4.90;99.90;;;;;;5031670;28;20036;-51
2022/04/11 03:09:39;;;;;;;4.25;2.15;;;4.90;99.90;;;;;;5022210;28;20037;-51
2022/04/11 03:12:06;;;;;;;5.90;3.00;;;4.90;99.90;;;;;;5060628;28;20040;-51
2022/04/11 03:14:31;;;;;;;4.20;2.95;;;4.70;99.90;;;;;;5054580;28;20182;-50
2022/04/11 03:16:57;;;;;;;4.50;3.10;;;4.70;99.90;;;;;;5063480;28;20116;-51
2022/04/11 03:19:24;;;;;;;3.85;2.85;;;4.70;99.90;;;;;;5054661;28;20045;-50
2022/04/11 03:21:49;;;;;;;5.38;3.15;;;4.60;99.90;;;;;;5057708;28;20037;-51
2022/04/11 03:24:15;;;;;;;8.15;3.17;;;4.70;99.90;;;;;;5072267;28;20031;-51
2022/04/11 03:26:41;;;;;;;3.58;3.10;;;4.70;99.90;;;;;;5065081;28;20048;-51
2022/04/11 03:29:07;;;;;;;7.05;3.20;;;4.80;99.90;;;;;;5066959;28;20021;-51
2022/04/11 03:31:32;;;;;;;4.85;3.00;;;4.80;99.90;;;;;;5059393;28;20035;-53
2022/04/11 03:33:58;;;;;;;4.13;2.90;;;4.80;99.90;;;;;;5065783;28;20430;-51
2022/04/11 03:36:24;;;;;;;8.32;3.90;;;4.80;99.90;;;;;;5067704;28;20088;-51
2022/04/11 03:38:50;;;;;;;3.80;2.88;;;4.90;99.90;;;;;;5069163;28;20029;-51
2022/04/11 03:41:16;;;;;;;7.97;3.28;;;5.00;99.90;;;;;;5060390;28;20029;-51
2022/04/11 03:43:42;;;;;;;3.25;2.80;;;5.00;99.90;;;;;;5061999;28;20159;-51
2022/04/11 03:46:08;;;;;;;4.55;3.15;;;5.00;99.90;;;;;;5065239;28;20044;-51
2022/04/11 03:48:34;;;;;;;4.32;3.08;;;5.10;99.90;;;;;;5067151;28;20480;-51
2022/04/11 03:51:00;;;;;;;6.25;3.60;;;5.10;99.90;;;;;;5060482;28;20043;-51
2022/04/11 03:53:26;;;;;;;5.22;3.83;;;5.20;99.90;;;;;;5061329;28;20032;-50
2022/04/11 03:55:52;;;;;;;4.93;3.40;;;5.20;99.90;;;;;;5068897;28;20548;-51
2022/04/11 03:58:17;;;;;;;4.22;2.65;;;5.20;99.90;;;;;;5063233;28;20024;-51
2022/04/11 04:00:43;;;;;;;17.02;4.50;;;5.20;99.90;;;;;;5062496;28;20512;-51
2022/04/11 04:03:11;;;;;;;5.03;3.20;;;5.20;99.90;;;;;;5075847;28;20033;-51
2022/04/11 04:05:44;;;;;;;4.28;3.33;;;5.40;99.90;;;;;;5064472;28;20041;-51
2022/04/11 04:08:11;;;;;;;6.75;3.83;;;5.10;99.90;;;;;;5045282;28;20041;-51
2022/04/11 04:10:37;;;;;;;5.18;3.53;;;5.20;99.90;;;;;;5062083;28;20025;-51
2022/04/11 04:13:03;;;;;;;5.95;3.85;;;5.20;99.90;;;;;;5068402;28;20463;-51
2022/04/11 04:15:30;;;;;;;7.65;3.55;;;5.30;99.90;;;;;;5064868;28;20112;-51
2022/04/11 04:17:57;;;;;;;5.90;3.78;;;5.20;99.90;;;;;;5064946;28;20036;-51
2022/04/11 04:20:26;;;;;;;4.97;3.70;;;5.30;99.90;;;;;;5072740;28;20024;-50
2022/04/11 04:22:55;;;;;;;6.07;3.20;;;5.40;99.90;;;;;;5067081;28;20383;-51
2022/04/11 04:25:21;;;;;;;4.35;3.10;;;5.40;99.90;;;;;;5064923;28;20514;-51
2022/04/11 04:27:47;;;;;;;4.65;3.28;;;5.40;99.90;;;;;;5047620;28;20496;-51
2022/04/11 04:30:13;;;;;;;5.30;3.60;;;5.40;99.90;;;;;;5060351;28;20036;-51
2022/04/11 04:32:40;;;;;;;4.85;3.17;;;5.40;99.90;;;;;;5067153;28;20052;-53
2022/04/11 04:35:07;;;;;;;5.65;3.47;;;5.30;99.90;;;;;;5063959;28;20371;-51
2022/04/11 04:37:33;;;;;;;6.00;4.95;;;5.30;99.90;;;;;;5061284;28;20029;-51
2022/04/11 04:39:59;;;;;;;8.32;4.10;;;5.30;99.90;;;;;;5076892;28;20368;-51
2022/04/11 04:42:26;;;;;;;9.48;5.95;;;5.30;99.90;;;;;;5047076;28;20040;-50
2022/04/11 04:44:52;;;;;;;4.40;3.80;;;5.30;99.90;;;;;;5066089;28;20463;-51
2022/04/11 04:47:18;;;;;;;6.65;4.57;;;5.30;99.90;;;;;;5063115;28;20064;-51
2022/04/11 04:49:46;;;;;;;7.70;6.63;;;5.40;99.90;;;;;;5070113;28;20052;-51
2022/04/11 04:52:12;;;;;;;6.45;4.55;;;5.40;99.90;;;;;;5052718;28;20033;-51
2022/04/11 04:54:38;;;;;;;8.50;3.42;;;5.40;99.90;;;;;;5063012;28;20025;-51
2022/04/11 04:57:05;;;;;;;4.65;3.20;;;5.50;99.90;;;;;;5065416;28;20021;-51
2022/04/11 04:59:31;;;;;;;5.38;3.35;;;5.50;99.90;;;;;;5062036;28;20025;-52
2022/04/11 05:01:57;;;;;;;6.10;4.05;;;5.50;99.90;;;;;;5071281;28;20082;-51
2022/04/11 05:04:23;;;;;;;6.88;3.70;;;5.50;99.90;;;;;;5037018;28;20087;-51
2022/04/11 05:06:48;;;;;;;8.15;4.95;;;5.50;99.90;;;;;;5060851;28;20040;-52
2022/04/11 05:09:14;;;;;;;8.50;6.15;;;5.60;99.90;;;;;;5073900;28;20039;-54
2022/04/11 05:11:40;;;;;;;6.43;4.30;;;5.60;99.90;;;;;;5060591;28;20445;-50
2022/04/11 05:14:06;;;;;;;10.15;5.35;;;5.70;99.90;;;;;;5086639;28;20049;-51
2022/04/11 05:16:32;;;;;;;6.28;3.53;;;5.80;99.90;;;;;;5051027;28;20097;-49
2022/04/11 05:18:58;;;;;;;5.75;3.63;;;5.80;99.90;;;;;;5065370;28;20032;-49
2022/04/11 05:21:24;;;;;;;9.77;5.80;;;5.80;99.90;;;;;;5048773;28;20032;-52
2022/04/11 05:23:50;;;;;;;8.90;4.15;;;6.00;99.90;;;;;;5070900;28;20024;-50
2022/04/11 05:26:15;;;;;;;10.07;6.60;;;5.80;99.90;;;;;;5072641;28;20056;-51
2022/04/11 05:28:41;;;;;;;7.90;4.90;;;5.80;99.90;;;;;;5064319;28;20079;-50
2022/04/11 05:31:07;;;;;;;7.47;5.00;;;6.00;99.90;;;;;;5062146;28;20500;-48
2022/04/11 05:33:33;;;;;;;6.05;2.63;;;6.10;99.90;;;;;;5032234;28;20040;-47
2022/04/11 05:35:59;;;;;;;7.93;3.60;;;5.70;99.90;;;;;;5036517;28;20043;-49
2022/04/11 05:38:24;;;;;;;8.15;4.70;;;5.90;99.90;;;;;;5062571;28;20123;-47
2022/04/11 05:40:50;;;;;;;6.32;4.45;;;6.10;99.90;;;;;;5062021;28;20164;-49
2022/04/11 05:43:16;;;;;;;3.88;2.28;;;6.10;99.90;;;;;;5063008;28;20166;-48
2022/04/11 05:45:42;;;;;;;6.15;3.80;;;6.20;99.90;;;;;;5029770;28;20053;-49
2022/04/11 05:48:09;;;;;;;7.47;4.00;;;6.30;99.90;;;;;;5060768;28;20037;-50
2022/04/11 05:50:35;;;;;;;4.50;3.40;;;6.40;99.90;;;;;;5066944;28;20116;-48
2022/04/11 05:53:01;;;;;;;5.85;3.40;;;6.70;99.90;;;;;;5070626;28;20519;-49
2022/04/11 05:55:28;;;;;;;3.45;2.63;;;6.60;99.90;;;;;;5065113;28;20037;-49
2022/04/11 05:57:54;;;;;;;4.00;1.88;;;6.70;99.90;;;;;;5041916;28;20385;-49
2022/04/11 06:00:20;;;;;;;8.10;3.35;;;6.60;99.90;;;;;;5066173;28;20033;-48
2022/04/11 06:02:47;;;;;;;4.80;3.25;;;6.80;99.90;;;;;;5069039;28;20051;-48
2022/04/11 06:05:13;;;;;;;7.85;3.30;;;6.80;99.90;;;;;;5065328;28;20453;-48
2022/04/11 06:07:39;;;;;;;6.47;3.33;;;6.90;99.90;;;;;;5040305;28;20037;-48
2022/04/11 06:10:07;;;;;;;4.50;2.80;;;6.90;99.90;;;;;;5067207;28;20408;-49
2022/04/11 06:12:34;;;;;;;6.57;3.40;;;7.00;99.90;;;;;;5076195;28;20043;-50
2022/04/11 06:15:00;;;;;;;2.67;2.30;;;7.30;99.90;;;;;;5069293;28;20028;-49
2022/04/11 06:17:26;;;;;;;5.15;2.08;;;7.40;99.90;;;;;;5068137;28;20032;-48
2022/04/11 06:19:53;;;;;;;4.97;3.20;;;7.50;99.90;;;;;;5068827;28;20041;-48
2022/04/11 06:22:19;;;;;;;4.55;2.50;;;7.70;99.90;;;;;;5060910;28;20388;-49
2022/04/11 06:24:46;;;;;;;6.90;2.35;;;7.60;99.90;;;;;;5061668;28;20025;-48
2022/04/11 06:27:12;;;;;;;3.60;2.30;;;7.70;99.90;;;;;;5069466;28;20059;-48
2022/04/11 06:29:38;;;;;;;4.18;2.78;;;7.80;99.90;;;;;;5071827;28;20067;-47
2022/04/11 06:32:05;;;;;;;3.58;1.98;;;7.80;99.90;;;;;;5072400;28;20072;-48
2022/04/11 06:34:35;;;;;;;3.97;2.70;;;;;;;;;;5043767;28;20043;-48
2022/04/11 06:37:01;;;;;;;3.47;2.40;;;;;;;;;;5066343;28;20063;-48
2022/04/11 06:39:27;;;;;;;4.20;2.17;;;8.10;99.90;;;;;;5071117;28;20482;-48
2022/04/11 06:41:53;;;;;;;5.78;3.95;;;8.40;99.90;;;;;;5037239;28;20507;-48
2022/04/11 06:44:19;;;;;;;3.15;2.20;;;8.40;99.90;;;;;;5068873;28;20064;-48
2022/04/11 06:46:45;;;;;;;4.93;2.55;;;8.30;99.90;;;;;;5020856;28;20059;-48
2022/04/11 06:49:10;;;;;;;2.20;1.77;;;8.10;99.90;;;;;;5069005;28;20029;-47
2022/04/11 06:51:37;;;;;;;6.85;2.70;;;8.20;99.90;;;;;;5067293;28;20437;-49
2022/04/11 06:54:02;;;;;;;5.13;2.42;;;8.40;99.90;;;;;;5071600;28;20094;-49
2022/04/11 06:56:28;;;;;;;3.10;2.38;;;8.70;99.90;;;;;;5031291;28;20476;-49
2022/04/11 06:58:54;;;;;;;3.97;2.22;;;8.80;99.90;;;;;;5063783;28;20670;-47
2022/04/11 07:01:20;;;;;;;2.78;2.40;;;8.90;99.90;;;;;;5066656;28;20031;-47
2022/04/11 07:03:46;;;;;;;6.30;2.58;;;8.90;99.90;;;;;;5059714;28;20028;-48
2022/04/11 07:06:11;;;;;;;3.00;1.45;;;8.90;99.90;;;;;;5062049;28;20399;-48
2022/04/11 07:08:37;;;;;;;4.35;2.25;;;8.80;99.90;;;;;;5065702;28;20499;-48
2022/04/11 07:11:04;;;;;;;4.78;2.03;;;9.00;99.90;;;;;;5065932;28;20060;-46
2022/04/11 07:13:30;;;;;;;8.65;3.70;;;9.20;99.90;;;;;;5061796;28;20151;-47
2022/04/11 07:15:56;;;;;;;4.93;2.35;;;9.40;99.90;;;;;;5059550;28;20024;-47
2022/04/11 07:18:27;;;;;;;4.18;2.30;;;9.50;99.90;;;;;;5066713;28;20027;-51
2022/04/11 07:20:53;;;;;;;2.42;1.33;;;9.50;99.90;;;;;;5065536;28;20033;-47
2022/04/11 07:23:19;;;;;;;7.38;3.15;;;9.30;99.90;;;;;;5055897;28;20119;-48
2022/04/11 07:25:45;;;;;;;4.40;2.45;;;9.50;99.90;;;;;;5060238;28;20107;-49
2022/04/11 07:28:11;;;;;;;5.65;2.60;;;10.00;99.90;;;;;;5037020;28;20471;-48
2022/04/11 07:30:37;;;;;;;3.25;1.73;;;10.20;99.90;;;;;;5080848;28;20029;-49
2022/04/11 07:33:03;;;;;;;5.50;1.90;;;10.10;99.90;;;;;;5065025;28;20032;-48
2022/04/11 07:35:29;;;;;;;4.25;1.50;;;9.90;99.90;;;;;;5047184;28;20135;-48
2022/04/11 07:37:57;;;;;;;3.88;2.63;;;10.10;99.90;;;;;;5066657;28;20036;-48
2022/04/11 07:40:24;;;;;;;2.97;2.28;;;10.10;99.90;;;;;;5079873;28;20054;-48
2022/04/11 07:42:51;;;;;;;3.70;1.88;;;10.80;99.90;;;;;;5077034;28;20043;-48
2022/04/11 07:45:21;;;;;;;3.58;2.75;;;10.70;99.90;;;;;;5090189;28;20047;-49
2022/04/11 07:47:47;;;;;;;3.13;1.80;;;10.90;99.90;;;;;;5081563;28;20036;-49
2022/04/11 07:50:13;;;;;;;6.07;1.80;;;10.90;99.90;;;;;;5078182;28;20557;-48
2022/04/11 07:52:41;;;;;;;5.13;2.55;;;11.10;99.90;;;;;;5080103;28;20032;-49
2022/04/11 07:55:08;;;;;;;6.57;1.85;;;11.30;99.90;;;;;;5091046;28;20465;-48
2022/04/11 07:57:34;;;;;;;3.08;1.30;;;11.40;99.90;;;;;;5048899;28;20042;-48
2022/04/11 08:00:00;;;;;;;2.92;1.35;;;11.50;99.90;;;;;;5077688;28;20098;-48
2022/04/11 08:02:26;;;;;;;1.65;1.10;;;11.10;99.90;;;;;;5079209;28;20028;-48
2022/04/11 08:04:53;;;;;;;3.55;1.70;;;11.00;99.90;;;;;;5065886;28;20040;-48
2022/04/11 08:07:19;;;;;;;2.00;1.10;;;11.10;99.90;;;;;;5079404;28;20028;-48
2022/04/11 08:09:44;;;;;;;2.80;1.50;;;11.30;99.90;;;;;;5080661;28;20039;-48
2022/04/11 08:12:10;;;;;;;3.55;1.35;;;11.60;99.90;;;;;;5060421;28;20090;-49
2022/04/11 08:14:41;;;;;;;3.83;1.77;;;11.80;99.90;;;;;;5011007;28;20048;-49
2022/04/11 08:17:07;;;;;;;1.38;1.20;;;11.70;99.90;;;;;;5019460;28;20049;-49
2022/04/11 08:19:33;;;;;;;2.03;1.30;;;11.80;99.90;;;;;;5024089;28;20046;-48
2022/04/11 08:21:59;;;;;;;1.83;1.60;;;12.00;99.90;;;;;;5029135;28;20072;-49
2022/04/11 08:24:25;;;;;;;1.73;1.10;;;12.00;99.90;;;;;;5019173;28;20362;-48
2022/04/11 08:26:51;;;;;;;4.70;1.92;;;11.80;99.90;;;;;;5017162;28;20041;-46
2022/04/11 08:29:20;;;;;;;3.58;1.50;;;11.90;99.90;;;;;;5018682;28;20045;-51
2022/04/11 08:31:46;;;;;;;2.25;1.35;;;12.10;99.90;;;;;;5018165;28;20045;-51
2022/04/11 08:34:11;;;;;;;2.63;1.35;;;11.90;99.90;;;;;;5026717;28;20046;-49
2022/04/11 08:36:37;;;;;;;2.42;1.40;;;11.90;99.90;;;;;;5025292;28;20116;-47
2022/04/11 08:39:03;;;;;;;3.10;1.77;;;11.90;99.90;;;;;;5025122;28;20057;-47
2022/04/11 08:41:33;;;;;;;2.85;1.63;;;12.10;99.90;;;;;;5037727;28;20038;-48
2022/04/11 08:44:01;;;;;;;7.50;2.20;;;12.20;99.90;;;;;;5027729;28;20076;-47
2022/04/11 08:46:29;;;;;;;4.03;2.00;;;12.50;99.90;;;;;;5056923;28;20079;-48
2022/04/11 08:48:55;;;;;;;4.10;2.55;;;13.10;99.90;;;;;;5064505;28;20035;-48
2022/04/11 08:51:21;;;;;;;2.63;1.63;;;12.90;99.90;;;;;;5060400;28;20120;-48
2022/04/11 08:53:47;;;;;;;2.88;1.77;;;13.00;98.70;;;;;;5072182;28;20040;-48
2022/04/11 08:56:13;;;;;;;5.78;2.10;;;13.20;99.00;;;;;;5072181;28;20024;-48
2022/04/11 08:58:39;;;;;;;3.80;1.92;;;13.50;99.90;;;;;;5076072;28;20115;-48
2022/04/11 09:01:05;;;;;;;3.30;1.45;;;13.50;99.20;;;;;;5058506;28;20497;-47
2022/04/11 09:03:30;;;;;;;5.78;1.83;;;13.10;99.30;;;;;;5070858;28;20041;-47
2022/04/11 09:06:03;;;;;;;3.25;2.08;;;13.30;99.10;;;;;;5066455;28;20040;-47
2022/04/11 09:08:50;;;;;;;3.53;1.90;;;13.40;98.20;;;;;;5071352;28;20083;-47
2022/04/11 09:11:29;;;;;;;6.18;3.55;;;13.60;98.30;;;;;;5058350;28;20048;-48
2022/04/11 09:13:56;;;;;;;3.35;1.98;;;13.90;98.30;;;;;;5074509;28;20031;-48
2022/04/11 09:16:22;;;;;;;4.95;2.33;;;14.10;98.30;;;;;;5066869;28;20016;-47
2022/04/11 09:18:50;;;;;;;2.58;1.63;;;13.70;97.20;;;;;;5071315;28;20028;-48
2022/04/11 09:21:16;;;;;;;4.45;2.05;;;13.50;97.40;;;;;;5056023;28;20098;-47
2022/04/11 09:23:42;;;;;;;3.95;1.90;;;13.60;97.30;;;;;;5069283;28;20025;-47
2022/04/11 09:26:20;;;;;;;5.47;2.30;;;13.30;97.80;;;;;;5070907;28;20098;-48
2022/04/11 09:28:58;;;;;;;2.47;1.90;;;13.40;98.00;;;;;;5066789;28;20025;-48
2022/04/11 09:31:24;;;;;;;3.97;2.35;;;13.50;99.00;;;;;;5072119;28;20037;-47
2022/04/11 09:33:50;;;;;;;4.32;2.65;;;13.30;97.80;;;;;;5067983;28;20028;-48
2022/04/11 09:36:16;;;;;;;2.63;1.60;;;13.60;98.00;;;;;;5072221;28;20086;-47
2022/04/11 09:38:42;;;;;;;3.92;1.50;;;13.00;97.60;;;;;;5071397;28;20039;-48
2022/04/11 09:41:07;;;;;;;4.78;1.95;;;12.80;97.50;;;;;;5076212;28;20124;-47
2022/04/11 09:43:34;;;;;;;4.63;2.25;;;13.00;97.90;;;;;;5066176;28;20025;-47
2022/04/11 09:46:02;;;;;;;1.92;1.60;;;13.60;98.10;;;;;;5058250;28;20063;-50
2022/04/11 09:48:32;;;;;;;6.82;2.65;;;13.60;97.40;;;;;;5043932;28;20493;-48
2022/04/11 09:51:01;;;;;;;2.92;2.28;;;14.40;96.40;;;;;;5041106;28;20064;-52
2022/04/11 09:53:34;;;;;;;2.95;1.80;;;14.40;95.60;;;;;;5011169;28;20041;-52
2022/04/11 09:56:05;;;;;;;3.30;1.80;;;13.90;94.60;;;;;;5008061;28;20065;-49
2022/04/11 09:58:33;;;;;;;2.90;1.90;;;13.80;96.40;;;;;;5001879;28;20030;-51
2022/04/11 10:01:02;;;;;;;4.07;2.05;;;14.00;96.00;;;;;;5002265;28;20053;-48
2022/04/11 10:03:29;;;;;;;2.20;1.73;;;14.20;96.10;;;;;;5017289;28;20049;-49
2022/04/11 10:05:56;;;;;;;7.45;4.80;;;13.50;95.50;;;;;;4996054;28;20074;-49
2022/04/11 10:08:26;;;;;;;4.57;2.15;;;13.50;95.80;;;;;;5004470;28;20563;-58
2022/04/11 10:10:53;;;;;;;4.65;2.40;;;13.70;96.70;;;;;;5003466;28;20038;-52
2022/04/11 10:13:19;;;;;;;3.97;2.08;;;13.60;96.30;;;;;;5005370;28;20034;-51
2022/04/11 10:15:46;;;;;;;4.95;1.95;;;13.90;96.80;;;;;;5010688;28;20060;-51
2022/04/11 10:18:30;;;;;;;6.60;3.45;;;14.40;96.10;;;;;;4989568;28;20045;-51
2022/04/11 10:20:59;;;;;;;4.30;2.75;;;14.50;96.60;;;;;;5020105;28;20038;-51
2022/04/11 10:23:35;;;;;;;4.70;2.88;;;14.50;94.10;;;;;;5006015;28;20084;-51
2022/04/11 10:26:13;;;;;;;3.92;1.95;;;15.30;96.10;;;;;;5012898;28;20046;-56
2022/04/11 10:28:47;;;;;;;11.60;4.07;;;15.00;94.60;;;;;;5062067;28;20127;-52
2022/04/11 10:31:14;;;;;;;2.58;1.80;;;14.90;94.00;;;;;;5057411;28;20068;-53
2022/04/11 10:33:57;;;;;;;2.58;1.45;;;15.00;93.30;;;;;;5042320;28;20531;-49
2022/04/11 10:36:35;;;;;;;3.15;1.60;;;15.60;94.00;;;;;;5060521;28;20063;-52
2022/04/11 10:39:13;;;;;;;2.55;1.60;;;15.40;93.30;;;;;;5065073;28;20550;-47
2022/04/11 10:41:56;;;;;;;3.88;2.05;;;15.60;93.20;;;;;;5065124;28;20114;-47
2022/04/11 10:44:31;;;;;;;2.28;1.50;;;16.00;90.90;;;;;;5062969;28;20044;-53
2022/04/11 10:47:09;;;;;;;2.05;1.40;;;16.20;92.00;;;;;;5064857;28;20055;-46
2022/04/11 10:49:44;;;;;;;2.45;1.60;;;15.90;91.40;;;;;;5072021;28;20456;-52
2022/04/11 10:52:35;;;;;;;3.75;1.48;;;16.60;92.20;;;;;;5067460;28;20498;-50
2022/04/11 10:55:15;;;;;;;3.65;1.38;;;16.60;88.00;;;;;;5064846;28;20029;-48
2022/04/11 10:57:50;;;;;;;3.38;1.83;;;17.60;92.00;;;;;;5065618;28;20655;-48
2022/04/11 11:00:31;;;;;;;3.70;1.63;;;17.20;86.00;;;;;;5066473;28;20033;-47
2022/04/11 11:02:59;;;;;;;1.73;1.27;;;16.70;91.00;;;;;;5061559;28;20139;-49
2022/04/11 11:05:40;;;;;;;1.10;1.00;;;15.30;86.40;;;;;;5060470;28;20049;-52
2022/04/11 11:08:09;;;;;;;2.40;1.52;;;14.60;84.10;;;;;;5057880;28;20686;-48
2022/04/11 11:11:02;;;;;;;4.90;1.60;;;14.60;82.50;;;;;;5056034;28;20036;-49
2022/04/11 11:13:39;;;;;;;1.73;1.30;;;14.80;87.20;;;;;;5026962;28;20041;-50
2022/04/11 11:16:07;;;;;;;4.07;1.08;;;14.70;86.20;;;;;;5028715;28;20041;-48
2022/04/11 11:18:48;;;;;;;3.53;2.35;;;14.40;90.20;;;;;;5028737;28;20077;-46
2022/04/11 11:21:37;;;;;;;1.63;0.95;;;14.00;89.30;;;;;;5028853;28;20076;-50
2022/04/11 11:24:12;;;;;;;3.00;1.30;;;13.90;90.50;;;;;;5008967;28;20041;-47
2022/04/11 11:26:46;;;;;;;1.63;1.05;;;13.90;89.90;;;;;;5027975;28;20045;-48
2022/04/11 11:29:16;;;;;;;1.63;0.98;;;13.90;90.20;;;;;;4999876;28;20488;-49
2022/04/11 11:31:43;;;;;;;2.75;1.10;;;13.60;88.70;;;;;;5028211;28;20663;-49
2022/04/11 11:34:12;;;;;;;3.90;1.15;;;13.60;88.70;;;;;;5029004;28;20021;-48
2022/04/11 11:36:39;;;;;;;1.95;1.13;;;13.50;91.30;;;;;;5028705;28;20045;-49
2022/04/11 11:39:21;;;;;;;2.95;1.20;;;13.30;88.60;;;;;;5028913;28;20064;-49
2022/04/11 11:41:49;;;;;;;1.95;1.15;;;13.20;90.10;;;;;;5025442;28;20102;-50
2022/04/11 11:44:15;;;;;;;3.42;1.35;;;13.20;87.20;;;;;;5029284;28;20029;-48
2022/04/11 11:47:03;;;;;;;2.20;1.20;;;13.20;87.50;;;;;;4992428;28;20038;-48
2022/04/11 11:49:40;;;;;;;87.40;54.75;;;13.10;87.30;;;;;;4972220;28;20064;-50
2022/04/11 11:52:12;;;;;;;6.35;2.28;;;13.30;90.00;;;;;;5015064;28;20069;-50
2022/04/11 11:54:41;;;;;;;;;;;13.40;88.30;;;;;;5011603;28;20053;-50
2022/04/11 11:57:14;;;;;;;6.47;2.50;;;13.30;90.20;;;;;;5006335;28;19917;-50
2022/04/11 11:59:56;;;;;;;3.65;2.10;;;13.30;91.00;;;;;;5021249;28;20208;-49
2022/04/11 12:05:20;;;;;;;3.63;2.55;;;13.20;90.30;;;;;;5017355;28;20043;-49
2022/04/11 12:08:04;;;;;;;2.97;2.13;;;13.10;91.50;;;;;;5016864;28;20108;-49
2022/04/11 12:10:30;;;;;;;5.38;1.95;;;13.30;91.90;;;;;;5006819;28;20034;-49
2022/04/11 12:12:57;;;;;;;2.28;1.42;;;13.40;92.50;;;;;;5022487;28;20033;-50
2022/04/11 12:15:23;;;;;;;3.42;1.80;;;13.50;91.60;;;;;;5022464;28;20040;-49
2022/04/11 12:17:59;;;;;;;6.30;1.95;;;13.60;90.30;;;;;;5014071;28;20057;-49
2022/04/11 12:20:29;;;;;;;4.85;2.05;;;13.60;91.60;;;;;;5041077;28;20056;-48
2022/04/11 12:23:04;;;;;;;5.03;2.17;;;13.60;92.20;;;;;;5058175;28;20033;-48
2022/04/11 12:25:33;;;;;;;2.30;1.45;;;13.30;90.70;;;;;;5056740;28;20140;-49
2022/04/11 12:28:12;;;;;;;7.47;3.88;;;13.50;92.50;;;;;;5047304;28;20133;-49
2022/04/11 12:30:41;;;;;;;4.35;1.75;;;13.60;92.50;;;;;;5051698;28;20362;-48
2022/04/11 12:33:07;;;;;;;2.92;1.63;;;13.50;91.50;;;;;;5051771;28;20396;-49
2022/04/11 12:35:35;;;;;;;3.10;1.30;;;13.70;91.90;;;;;;5046085;28;20041;-49
2022/04/11 12:38:07;;;;;;;9.40;4.22;;;13.80;91.80;;;;;;5032033;28;20033;-49
2022/04/11 12:40:43;;;;;;;;;;;13.80;92.40;;;;;;5032368;28;20036;-49
2022/04/11 12:43:09;;;;;;;3.75;2.10;;;13.60;91.60;;;;;;5032100;28;19915;-48
2022/04/11 12:45:35;;;;;;;4.38;2.38;;;13.70;91.60;;;;;;5029359;28;20120;-49
2022/04/11 12:48:09;;;;;;;5.95;2.38;;;13.90;90.40;;;;;;5031878;28;20048;-48
2022/04/11 12:50:36;;;;;;;2.20;1.20;;;13.90;92.30;;;;;;5031822;28;20033;-49
2022/04/11 12:53:03;;;;;;;2.50;1.45;;;13.50;88.20;;;;;;5031860;28;20071;-49
2022/04/11 12:55:32;;;;;;;4.90;3.08;;;13.90;89.60;;;;;;5031779;28;20025;-51
2022/04/11 12:58:06;;;;;;;4.32;2.28;;;14.10;88.70;;;;;;5029741;28;20492;-48
2022/04/11 13:00:34;;;;;;;7.38;2.42;;;14.20;88.30;;;;;;5031701;28;20030;-48
2022/04/11 13:03:00;;;;;;;6.10;2.80;;;14.40;88.30;;;;;;5031739;28;20492;-48
2022/04/11 13:05:27;;;;;;;7.68;1.75;;;14.30;87.20;;;;;;5029477;28;20064;-48
2022/04/11 13:07:54;;;;;;;3.75;1.98;;;14.30;88.50;;;;;;5031677;28;20082;-48
2022/04/11 13:10:22;;;;;;;4.45;2.20;;;14.40;91.20;;;;;;5031661;28;20029;-49
2022/04/11 13:12:49;;;;;;;2.28;1.60;;;14.00;91.50;;;;;;5012908;28;20037;-48